createdAt,value
2019-03-04T12:04:55.605Z,26.30
2019-03-04T12:05:41.811Z,26.10
2019-03-04T12:06:27.395Z,26.10
2019-03-04T12:07:13.595Z,25.90
2019-03-04T12:08:59.660Z,27.30
2019-03-04T12:09:46.437Z,25.30
2019-03-04T12:10:32.656Z,25.20
2019-03-04T12:11:20.651Z,25.10
2019-03-04T12:12:07.508Z,25.00
2019-03-04T12:12:54.489Z,25.00
2019-03-04T12:13:40.476Z,24.90
2019-03-04T12:14:27.463Z,24.90
2019-03-04T12:15:17.520Z,24.80
2019-03-04T12:16:06.421Z,24.70
2019-03-04T12:16:52.696Z,24.70
2019-03-04T13:46:56.594Z,24.40
2019-03-04T13:47:48.667Z,24.30
2019-03-04T13:48:34.308Z,24.30
2019-03-04T13:49:21.240Z,24.20
2019-03-04T13:50:09.965Z,24.20
2019-03-04T13:51:01.147Z,24.20
2019-03-04T13:51:45.068Z,24.10
2019-03-04T13:52:28.199Z,24.10
2019-03-04T13:53:14.896Z,24.10
2019-03-04T13:54:00.005Z,24.10
2019-03-04T13:54:48.032Z,24.10
2019-03-04T13:55:36.267Z,24.10
2019-03-04T13:56:25.607Z,24.10
2019-03-04T13:57:13.606Z,24.10
2019-03-04T13:58:02.468Z,24.10
2019-03-04T13:58:50.526Z,24.10
2019-03-04T13:59:35.310Z,24.10
2019-03-04T14:00:24.453Z,24.00
2019-03-04T14:01:09.590Z,24.00
2019-03-04T14:01:54.500Z,24.00
2019-03-04T14:02:39.986Z,24.00
2019-03-04T14:03:25.032Z,24.00
2019-03-04T14:04:10.093Z,24.00
2019-03-04T14:04:55.320Z,24.00
2019-03-04T14:05:45.006Z,24.00
2019-03-04T14:06:29.526Z,24.00
2019-03-04T14:07:14.133Z,24.00
2019-03-04T14:07:58.263Z,23.90
2019-03-04T14:08:42.987Z,23.90
2019-03-04T14:09:28.309Z,23.90
2019-03-04T14:10:14.991Z,23.90
2019-03-04T14:10:59.978Z,23.90
2019-03-04T14:11:43.634Z,23.90
2019-03-04T14:12:33.159Z,23.90
2019-03-04T14:13:17.998Z,23.90
2019-03-04T14:14:02.585Z,23.80
2019-03-04T14:14:47.989Z,23.80
2019-03-04T14:15:40.315Z,23.80
2019-03-04T14:16:29.552Z,23.80
2019-03-04T14:17:24.140Z,23.80
2019-03-04T14:18:10.257Z,23.90
2019-03-04T14:18:54.584Z,23.90
2019-03-04T14:20:33.866Z,24.00
2019-03-04T14:21:24.028Z,24.10
2019-03-04T14:22:19.966Z,24.10
2019-03-04T14:23:04.307Z,24.10
2019-03-04T14:23:49.315Z,24.20
2019-03-04T14:24:40.595Z,24.20
2019-03-04T14:25:25.329Z,24.20
2019-03-04T14:26:11.308Z,24.20
2019-03-04T14:26:56.313Z,24.20
2019-03-04T14:27:42.106Z,24.30
2019-03-04T14:28:28.365Z,24.30
2019-03-04T14:29:17.362Z,24.30
2019-03-04T14:30:01.988Z,24.30
2019-03-04T14:30:48.572Z,24.30
2019-03-04T14:31:36.095Z,24.30
2019-03-04T14:32:21.306Z,24.30
2019-03-04T14:33:06.093Z,24.30
2019-03-04T14:33:48.560Z,24.30
2019-03-04T14:34:34.315Z,24.30
2019-03-04T14:35:20.315Z,24.40
2019-03-04T14:36:04.999Z,24.40
2019-03-04T14:36:53.087Z,24.30
2019-03-04T14:37:37.942Z,24.40
2019-03-04T14:38:22.980Z,24.40
2019-03-04T14:39:07.310Z,24.40
2019-03-04T14:39:54.313Z,24.40
2019-03-04T14:40:39.964Z,24.40
2019-03-04T14:41:24.535Z,24.40
2019-03-04T14:42:10.323Z,24.40
2019-03-04T14:42:55.432Z,24.40
2019-03-04T14:43:42.052Z,24.40
2019-03-04T14:44:30.134Z,24.40
2019-03-04T14:45:20.318Z,24.40
2019-03-04T14:46:14.658Z,24.40
2019-03-04T14:47:02.626Z,24.40
2019-03-04T14:47:45.004Z,24.40
2019-03-04T14:48:27.886Z,24.50
2019-03-04T14:49:15.307Z,24.40
2019-03-04T14:50:09.562Z,24.40
2019-03-04T14:51:52.815Z,24.50
2019-03-04T14:52:43.375Z,24.50
2019-03-04T14:53:29.584Z,24.50
2019-03-04T14:54:23.394Z,24.50
2019-03-04T14:55:15.312Z,24.50
2019-03-04T14:56:01.403Z,24.50
2019-03-04T14:56:48.948Z,24.50
2019-03-04T14:57:45.709Z,24.40
2019-03-04T14:58:30.112Z,24.40
2019-03-04T14:59:16.575Z,24.40
2019-03-04T15:00:00.991Z,24.40
2019-03-04T15:00:51.341Z,24.40
2019-03-04T15:01:35.951Z,24.40
2019-03-04T15:02:20.969Z,24.40
2019-03-04T15:03:05.383Z,24.40
2019-03-04T15:03:50.314Z,24.40
2019-03-04T15:04:35.525Z,24.40
2019-03-04T15:05:24.564Z,24.40
2019-03-04T15:06:09.314Z,24.40
2019-03-04T15:06:54.354Z,24.40
2019-03-04T15:07:38.996Z,24.40
2019-03-04T15:08:24.803Z,24.40
2019-03-04T15:09:11.977Z,24.40
2019-03-04T15:09:57.012Z,24.40
2019-03-04T15:10:44.131Z,24.40
2019-03-04T15:11:30.531Z,24.50
2019-03-04T15:12:18.308Z,24.50
2019-03-04T15:13:03.563Z,24.50
2019-03-04T15:13:48.198Z,24.40
2019-03-04T15:14:32.496Z,24.50
2019-03-04T15:15:21.306Z,24.50
2019-03-04T15:16:11.549Z,24.60
2019-03-04T15:17:03.363Z,24.60
2019-03-04T15:17:47.526Z,24.70
2019-03-04T15:18:35.181Z,24.90
2019-03-04T15:19:21.514Z,24.90
2019-03-04T15:20:09.851Z,24.80
2019-03-04T15:20:54.107Z,24.70
2019-03-04T15:21:38.656Z,24.70
2019-03-04T15:22:54.664Z,24.70
2019-03-04T15:23:41.508Z,24.60
2019-03-04T15:24:30.518Z,24.60
2019-03-04T15:25:21.913Z,24.60
2019-03-04T15:26:08.516Z,24.50
2019-03-04T15:26:56.493Z,24.50
2019-03-04T15:27:44.462Z,24.50
2019-03-04T15:28:31.674Z,24.50
2019-03-04T15:29:18.523Z,24.50
2019-03-04T15:30:08.521Z,24.50
2019-03-04T15:30:58.544Z,24.40
2019-03-04T15:31:45.974Z,24.40
2019-03-04T15:32:29.995Z,24.40
2019-03-04T15:34:00.797Z,24.40
2019-03-04T15:34:54.542Z,24.40
2019-03-04T15:35:50.111Z,24.40
2019-03-04T15:36:35.315Z,24.40
2019-03-04T15:37:22.409Z,24.40
2019-03-04T15:38:10.534Z,24.40
2019-03-04T15:38:54.985Z,24.40
2019-03-04T15:39:40.894Z,24.40
2019-03-04T15:40:26.878Z,24.40
